Time;durP1;ratioP1;P1;durP2;ratioP2;P2;SDS_P1;SDS_P2;PMS_P1;PMS_P2;Temp;Humidity;BMP_temperature;BMP_pressure;BME280_temperature;BME280_humidity;BME280_pressure;Samples;Min_cycle;Max_cycle;Signal;HPM_P1;HPM_P2
2022/12/07 00:00:56;;;;;;;5.40;3.70;;;3.50;99.90;;;;;;5055824;28;20445;-60
2022/12/07 00:03:23;;;;;;;5.10;2.30;;;3.40;99.90;;;;;;5055969;28;20464;-61
2022/12/07 00:05:50;;;;;;;7.07;3.47;;;3.40;99.90;;;;;;5055991;28;20436;-62
2022/12/07 00:08:17;;;;;;;8.90;4.47;;;3.30;99.90;;;;;;5053822;28;20479;-71
2022/12/07 00:10:47;;;;;;;8.43;3.97;;;3.40;99.90;;;;;;5052068;28;20483;-59
2022/12/07 00:13:16;;;;;;;3.67;3.20;;;3.40;99.90;;;;;;5049378;28;20444;-73
2022/12/07 00:15:45;;;;;;;7.33;3.67;;;3.30;99.90;;;;;;5062951;28;20499;-63
2022/12/07 00:18:12;;;;;;;6.60;4.27;;;3.30;99.90;;;;;;5062690;28;20454;-65
2022/12/07 00:20:39;;;;;;;2.40;1.43;;;3.30;99.90;;;;;;5058240;28;20464;-62
2022/12/07 00:23:05;;;;;;;3.97;2.77;;;3.20;99.90;;;;;;5060431;28;20499;-73
2022/12/07 00:25:32;;;;;;;4.07;2.77;;;3.10;99.90;;;;;;5063184;28;20447;-65
2022/12/07 00:27:59;;;;;;;7.43;3.77;;;3.10;99.90;;;;;;5062830;28;20455;-56
2022/12/07 00:30:26;;;;;;;9.23;5.47;;;3.00;99.90;;;;;;5062197;28;20463;-59
2022/12/07 00:32:56;;;;;;;5.27;3.13;;;4.30;99.90;;;;;;5061904;28;20462;-53
2022/12/07 00:35:23;;;;;;;5.20;3.00;;;3.10;99.90;;;;;;5062085;28;20466;-54
2022/12/07 00:37:49;;;;;;;8.23;4.90;;;3.00;99.90;;;;;;5054318;28;20428;-54
2022/12/07 00:40:16;;;;;;;6.07;3.77;;;3.10;99.90;;;;;;5062585;28;20432;-54
2022/12/07 00:42:43;;;;;;;7.07;4.63;;;3.10;99.90;;;;;;5062055;28;20427;-56
2022/12/07 00:45:10;;;;;;;5.30;3.33;;;3.20;99.90;;;;;;5061663;28;20467;-57
2022/12/07 00:47:37;;;;;;;9.77;4.40;;;3.10;99.90;;;;;;5061459;28;20784;-58
2022/12/07 00:50:07;;;;;;;6.57;3.60;;;3.00;99.90;;;;;;5061739;28;20488;-63
2022/12/07 00:52:36;;;;;;;7.03;3.20;;;3.00;99.90;;;;;;5061395;28;20440;-58
2022/12/07 00:55:04;;;;;;;4.80;3.07;;;2.90;99.90;;;;;;5061866;28;20447;-64
2022/12/07 00:57:32;;;;;;;5.90;4.03;;;2.80;99.90;;;;;;5061745;28;20460;-59
2022/12/07 01:00:00;;;;;;;5.70;2.97;;;2.80;99.90;;;;;;5060957;28;20444;-55
2022/12/07 01:02:27;;;;;;;4.90;3.00;;;2.80;99.90;;;;;;5060998;28;20444;-59
2022/12/07 01:04:54;;;;;;;4.70;3.00;;;2.80;99.90;;;;;;5060760;28;20432;-59
2022/12/07 01:07:22;;;;;;;5.87;3.03;;;2.80;99.90;;;;;;5060895;28;20448;-55
2022/12/07 01:09:49;;;;;;;6.70;3.07;;;2.80;99.90;;;;;;5060219;28;20488;-60
2022/12/07 01:12:16;;;;;;;6.87;4.30;;;2.70;99.90;;;;;;5060442;28;20451;-59
2022/12/07 01:14:43;;;;;;;3.93;3.07;;;2.70;99.90;;;;;;5061008;28;20431;-58
2022/12/07 01:17:10;;;;;;;5.77;3.10;;;2.80;99.90;;;;;;5060271;28;20428;-59
2022/12/07 01:19:36;;;;;;;4.40;2.50;;;2.80;99.90;;;;;;5060490;28;20455;-56
2022/12/07 01:22:05;;;;;;;4.53;2.93;;;2.80;99.90;;;;;;5060396;28;20488;-60
2022/12/07 01:24:33;;;;;;;5.30;2.83;;;2.80;99.90;;;;;;5060141;28;20444;-56
2022/12/07 01:27:00;;;;;;;4.87;2.93;;;2.90;99.90;;;;;;5056994;28;20432;-60
2022/12/07 01:29:27;;;;;;;3.43;2.67;;;2.90;99.90;;;;;;5057379;28;20467;-60
2022/12/07 01:31:54;;;;;;;6.63;2.83;;;3.00;99.90;;;;;;5057864;28;20456;-62
2022/12/07 01:34:21;;;;;;;7.10;3.63;;;3.00;99.90;;;;;;5058173;28;20467;-58
2022/12/07 01:36:47;;;;;;;7.03;3.03;;;3.00;99.90;;;;;;5058335;28;20436;-60
2022/12/07 01:39:14;;;;;;;5.07;3.50;;;3.00;99.90;;;;;;5058108;28;20428;-57
2022/12/07 01:41:46;;;;;;;3.87;2.60;;;3.00;99.90;;;;;;5057436;28;20432;-65
2022/12/07 01:44:21;;;;;;;4.67;2.27;;;3.00;99.90;;;;;;5057032;28;20424;-57
2022/12/07 01:46:57;;;;;;;4.90;2.70;;;3.00;99.90;;;;;;5056469;28;20471;-53
2022/12/07 01:49:31;;;;;;;5.47;2.53;;;3.00;99.90;;;;;;5056146;28;20432;-59
2022/12/07 01:52:04;;;;;;;3.30;2.20;;;3.00;99.90;;;;;;5055490;28;20474;-56
2022/12/07 01:54:33;;;;;;;4.63;2.53;;;3.00;99.90;;;;;;5056073;28;20455;-59
2022/12/07 01:57:03;;;;;;;5.63;1.90;;;3.00;99.90;;;;;;5055918;28;20445;-60
2022/12/07 01:59:30;;;;;;;5.27;3.80;;;3.00;99.90;;;;;;5056027;28;20451;-56
2022/12/07 02:01:57;;;;;;;4.07;2.80;;;3.10;99.90;;;;;;5056095;28;20440;-59
2022/12/07 02:04:25;;;;;;;2.70;1.63;;;3.00;99.90;;;;;;5056044;28;20469;-60
2022/12/07 02:06:53;;;;;;;5.80;4.03;;;3.10;99.90;;;;;;5056177;28;20452;-58
2022/12/07 02:09:19;;;;;;;4.27;2.30;;;3.10;99.90;;;;;;5055914;28;20452;-56
2022/12/07 02:11:47;;;;;;;3.03;1.90;;;3.00;99.90;;;;;;5055554;28;20488;-56
2022/12/07 02:14:15;;;;;;;8.10;3.27;;;3.00;99.90;;;;;;5055585;28;20440;-56
2022/12/07 02:16:50;;;;;;;6.63;2.63;;;3.10;99.90;;;;;;5055554;28;20472;-60
2022/12/07 02:19:51;;;;;;;4.97;2.53;;;3.10;99.90;;;;;;5056001;28;20531;-59
2022/12/07 02:22:35;;;;;;;4.40;2.60;;;3.10;99.90;;;;;;5056298;28;20455;-61
2022/12/07 02:25:15;;;;;;;3.97;2.57;;;3.20;99.90;;;;;;5057063;28;20435;-63
2022/12/07 02:27:47;;;;;;;9.43;3.20;;;3.20;99.90;;;;;;5055977;28;20444;-60
2022/12/07 02:35:33;;;;;;;4.63;2.40;;;3.20;99.90;;;;;;5315893;22;20486;-62
2022/12/07 02:38:09;;;;;;;3.23;2.33;;;3.20;99.90;;;;;;5096022;28;20426;-61
2022/12/07 02:40:42;;;;;;;3.37;2.53;;;3.20;99.90;;;;;;5096917;28;20472;-61
2022/12/07 02:43:13;;;;;;;3.87;3.10;;;3.20;99.90;;;;;;5096707;28;20430;-61
2022/12/07 02:45:42;;;;;;;4.53;2.40;;;3.10;99.90;;;;;;5097514;28;20431;-61
2022/12/07 02:48:12;;;;;;;4.40;2.63;;;3.10;99.90;;;;;;5096439;28;20469;-61
2022/12/07 02:50:44;;;;;;;5.30;3.20;;;3.10;99.90;;;;;;5096373;28;20501;-61
2022/12/07 02:53:29;;;;;;;4.07;2.87;;;3.00;99.90;;;;;;5096217;28;20453;-61
2022/12/07 02:55:57;;;;;;;4.20;2.20;;;3.00;99.90;;;;;;5096475;28;20425;-61
2022/12/07 02:58:37;;;;;;;5.80;3.63;;;2.90;99.90;;;;;;5091157;28;20476;-62
2022/12/07 03:01:18;;;;;;;4.87;3.63;;;3.00;99.90;;;;;;5094845;28;20441;-60
2022/12/07 03:03:54;;;;;;;7.43;3.23;;;3.10;99.90;;;;;;5087535;28;20761;-62
2022/12/07 03:06:29;;;;;;;3.53;2.27;;;3.00;99.90;;;;;;5095849;28;20453;-59
2022/12/07 03:09:06;;;;;;;3.27;2.73;;;3.00;99.90;;;;;;5095440;28;20434;-67
2022/12/07 03:11:43;;;;;;;5.10;3.30;;;2.90;99.90;;;;;;5095374;28;20481;-68
2022/12/07 03:14:16;;;;;;;4.00;1.90;;;3.00;99.90;;;;;;5094474;28;20434;-63
2022/12/07 03:16:49;;;;;;;4.87;3.10;;;3.00;99.90;;;;;;5095965;28;20399;-57
2022/12/07 03:19:22;;;;;;;4.00;3.07;;;2.90;99.90;;;;;;5095546;28;20452;-62
2022/12/07 03:21:54;;;;;;;3.93;2.70;;;3.00;99.90;;;;;;5095095;28;20443;-60
2022/12/07 03:24:27;;;;;;;4.80;2.70;;;3.00;99.90;;;;;;5095128;28;20848;-63
2022/12/07 03:26:59;;;;;;;4.53;2.67;;;3.00;99.90;;;;;;5095471;28;20442;-61
2022/12/07 03:29:32;;;;;;;5.23;3.47;;;3.00;99.90;;;;;;5095491;28;20426;-61
2022/12/07 03:32:04;;;;;;;3.03;2.73;;;3.00;99.90;;;;;;5095905;28;20466;-57
2022/12/07 03:34:35;;;;;;;4.70;2.47;;;3.00;99.90;;;;;;5096114;28;20553;-61
2022/12/07 03:37:09;;;;;;;4.63;2.40;;;3.00;99.90;;;;;;5090759;28;20459;-58
2022/12/07 03:39:43;;;;;;;3.80;2.80;;;3.10;99.90;;;;;;5097273;28;20436;-61
2022/12/07 03:42:12;;;;;;;4.57;2.73;;;2.90;99.90;;;;;;5096792;28;20451;-61
2022/12/07 03:44:39;;;;;;;2.70;2.00;;;2.90;99.90;;;;;;5097138;28;20454;-55
2022/12/07 03:47:14;;;;;;;6.03;3.40;;;2.90;99.90;;;;;;5096369;28;20442;-58
2022/12/07 03:49:46;;;;;;;3.27;2.33;;;2.90;99.90;;;;;;5096267;28;20444;-61
2022/12/07 03:52:24;;;;;;;4.40;3.07;;;2.90;99.90;;;;;;5096282;28;20457;-63
2022/12/07 03:54:57;;;;;;;10.30;2.90;;;2.90;99.90;;;;;;5096913;28;20449;-59
2022/12/07 03:57:26;;;;;;;4.27;2.27;;;2.90;99.90;;;;;;5096042;28;20426;-61
2022/12/07 03:59:55;;;;;;;7.53;3.17;;;3.00;99.90;;;;;;5095609;28;20446;-58
2022/12/07 04:02:24;;;;;;;3.67;2.80;;;2.80;99.90;;;;;;5096155;28;20450;-60
2022/12/07 04:04:51;;;;;;;5.63;3.67;;;2.90;99.90;;;;;;5096317;28;20431;-61
2022/12/07 04:07:19;;;;;;;5.70;2.60;;;2.80;99.90;;;;;;5094441;28;20450;-62
2022/12/07 04:09:46;;;;;;;4.90;3.20;;;2.90;99.90;;;;;;5093927;28;20438;-63
2022/12/07 04:12:13;;;;;;;8.43;3.63;;;2.90;99.90;;;;;;5095043;28;20512;-59
2022/12/07 04:14:40;;;;;;;6.90;3.43;;;2.90;99.90;;;;;;5094111;28;20473;-62
2022/12/07 04:17:07;;;;;;;5.90;3.37;;;2.80;99.90;;;;;;5094029;28;20437;-61
2022/12/07 04:19:35;;;;;;;7.47;3.30;;;2.80;99.90;;;;;;5094271;28;20462;-63
2022/12/07 04:22:04;;;;;;;5.60;3.40;;;2.80;99.90;;;;;;5093926;28;20781;-62
2022/12/07 04:24:32;;;;;;;6.80;3.67;;;2.90;99.90;;;;;;5093638;28;20445;-63
2022/12/07 04:26:59;;;;;;;6.93;3.80;;;2.90;99.90;;;;;;5094249;28;20442;-61
2022/12/07 04:29:27;;;;;;;9.77;5.17;;;2.80;99.90;;;;;;5094010;28;20460;-59
2022/12/07 04:31:54;;;;;;;6.73;4.53;;;2.80;99.90;;;;;;5094396;28;20497;-60
2022/12/07 04:34:21;;;;;;;8.53;4.20;;;2.90;99.90;;;;;;5095285;28;20439;-59
2022/12/07 04:36:49;;;;;;;7.87;5.33;;;2.80;99.90;;;;;;5094373;28;20454;-58
2022/12/07 04:39:20;;;;;;;5.63;2.77;;;2.80;99.90;;;;;;5094466;28;20465;-57
2022/12/07 04:41:48;;;;;;;5.93;3.20;;;2.80;99.90;;;;;;5093605;28;20438;-59
2022/12/07 04:44:16;;;;;;;6.77;4.30;;;2.80;99.90;;;;;;5093625;28;20476;-59
2022/12/07 04:46:43;;;;;;;8.00;4.30;;;2.80;99.90;;;;;;5094036;28;20480;-58
2022/12/07 04:49:13;;;;;;;8.73;4.43;;;2.80;99.90;;;;;;5093544;28;20500;-61
2022/12/07 04:51:43;;;;;;;8.30;4.37;;;2.80;99.90;;;;;;5093272;28;20462;-60
2022/12/07 04:54:10;;;;;;;6.17;3.97;;;2.80;99.90;;;;;;5094155;28;20422;-62
2022/12/07 04:56:38;;;;;;;10.77;5.40;;;2.90;99.90;;;;;;5093719;28;20441;-63
2022/12/07 04:59:09;;;;;;;11.30;5.50;;;2.90;99.90;;;;;;5093364;28;20437;-59
2022/12/07 05:01:39;;;;;;;11.50;5.33;;;2.90;99.90;;;;;;5095999;28;20442;-59
2022/12/07 05:04:06;;;;;;;13.30;5.13;;;2.80;99.90;;;;;;5097528;28;20466;-59
2022/12/07 05:06:33;;;;;;;11.43;6.30;;;2.80;99.90;;;;;;5097065;28;20469;-60
2022/12/07 05:09:00;;;;;;;5.57;4.20;;;2.90;99.90;;;;;;5096860;28;20469;-59
2022/12/07 05:14:12;;;;;;;7.07;4.97;;;2.90;99.90;;;;;;5097145;28;20450;-61
2022/12/07 05:16:40;;;;;;;9.23;5.20;;;2.90;99.90;;;;;;5097214;28;20411;-61
2022/12/07 05:19:08;;;;;;;12.63;5.20;;;2.90;99.90;;;;;;5097042;28;20435;-58
2022/12/07 05:21:35;;;;;;;15.60;6.73;;;2.90;99.90;;;;;;5097527;28;20438;-60
2022/12/07 05:24:03;;;;;;;11.17;6.10;;;2.90;99.90;;;;;;5097163;28;20460;-61
2022/12/07 05:26:31;;;;;;;8.13;4.30;;;2.90;99.90;;;;;;5096594;28;20462;-61
2022/12/07 05:28:58;;;;;;;13.73;4.70;;;3.00;99.90;;;;;;5097324;28;20430;-61
2022/12/07 05:31:27;;;;;;;10.57;6.93;;;3.00;99.90;;;;;;5096917;28;20486;-62
2022/12/07 05:33:54;;;;;;;12.50;6.73;;;3.10;99.90;;;;;;5090118;28;20450;-58
2022/12/07 05:36:22;;;;;;;11.30;5.43;;;3.10;99.90;;;;;;5096941;28;20514;-61
2022/12/07 05:38:49;;;;;;;11.03;5.13;;;3.10;99.90;;;;;;5097458;28;20482;-59
2022/12/07 05:44:02;;;;;;;8.20;4.33;;;3.10;99.90;;;;;;5097893;28;20417;-61
2022/12/07 05:46:30;;;;;;;15.00;7.80;;;3.20;99.90;;;;;;5097479;28;20447;-61
2022/12/07 05:48:57;;;;;;;11.77;6.60;;;3.20;99.90;;;;;;5097190;28;20437;-61
2022/12/07 05:51:24;;;;;;;14.73;5.70;;;3.20;99.90;;;;;;5097139;28;20490;-62
2022/12/07 05:53:51;;;;;;;16.70;7.10;;;3.20;99.90;;;;;;5097154;28;20438;-62
2022/12/07 05:56:21;;;;;;;17.23;8.20;;;3.20;99.90;;;;;;5096959;28;20434;-61
2022/12/07 06:01:33;;;;;;;14.10;6.27;;;3.30;99.90;;;;;;5096989;28;20452;-57
2022/12/07 06:04:00;;;;;;;20.20;9.93;;;3.30;99.90;;;;;;5096823;28;20484;-63
2022/12/07 06:06:27;;;;;;;9.63;5.87;;;3.40;99.90;;;;;;5096714;28;20454;-62
2022/12/07 06:08:54;;;;;;;11.77;5.87;;;3.40;99.90;;;;;;5096533;28;20462;-57
2022/12/07 06:14:05;;;;;;;13.23;7.00;;;3.50;99.90;;;;;;5097168;28;20394;-62
2022/12/07 06:16:34;;;;;;;14.93;7.70;;;3.50;99.90;;;;;;5089217;28;20446;-62
2022/12/07 06:19:00;;;;;;;8.60;6.70;;;3.60;99.90;;;;;;5097547;28;20447;-63
2022/12/07 06:21:27;;;;;;;28.27;11.80;;;3.70;99.90;;;;;;5097685;28;20462;-61
2022/12/07 06:23:54;;;;;;;15.40;7.27;;;3.70;99.90;;;;;;5097711;28;20423;-57
2022/12/07 06:26:24;;;;;;;9.87;6.07;;;3.70;99.90;;;;;;5098122;28;20446;-57
2022/12/07 06:28:53;;;;;;;16.27;7.43;;;3.70;99.90;;;;;;5098048;28;20442;-57
2022/12/07 06:31:20;;;;;;;14.33;7.27;;;3.70;99.90;;;;;;5097272;28;20467;-59
2022/12/07 06:33:48;;;;;;;15.93;7.83;;;3.70;99.90;;;;;;5097044;28;20453;-61
2022/12/07 06:36:25;;;;;;;13.00;8.17;;;3.70;99.90;;;;;;5089111;28;20454;-61
2022/12/07 06:38:52;;;;;;;13.33;7.13;;;3.80;99.90;;;;;;5098038;28;20477;-64
2022/12/07 06:41:19;;;;;;;15.90;6.40;;;3.60;99.90;;;;;;5098398;28;20433;-60
2022/12/07 06:43:46;;;;;;;11.63;5.67;;;3.60;99.90;;;;;;5098738;28;20454;-60
2022/12/07 06:46:13;;;;;;;18.37;7.20;;;3.60;99.90;;;;;;5098185;28;20473;-57
2022/12/07 06:48:42;;;;;;;10.97;7.00;;;3.60;99.90;;;;;;5098042;28;20441;-62
2022/12/07 06:51:16;;;;;;;13.53;7.63;;;3.60;99.90;;;;;;5097815;28;20490;-61
2022/12/07 06:53:43;;;;;;;14.70;8.10;;;3.60;99.90;;;;;;5097287;28;20431;-68
2022/12/07 06:56:12;;;;;;;18.93;7.20;;;3.60;99.90;;;;;;5097165;28;20926;-61
2022/12/07 06:58:47;;;;;;;11.70;6.80;;;3.70;99.90;;;;;;5097382;28;20465;-60
2022/12/07 07:01:16;;;;;;;12.10;7.17;;;3.70;99.90;;;;;;5095484;28;20466;-62
2022/12/07 07:03:44;;;;;;;13.47;9.33;;;3.70;99.90;;;;;;5095420;28;20480;-61
2022/12/07 07:06:12;;;;;;;10.00;5.80;;;3.70;99.90;;;;;;5095601;28;20453;-60
2022/12/07 07:08:40;;;;;;;9.67;5.53;;;3.80;99.90;;;;;;5095976;28;20477;-61
2022/12/07 07:11:09;;;;;;;9.77;6.87;;;3.80;99.90;;;;;;5095070;28;20441;-62
2022/12/07 07:13:36;;;;;;;11.93;6.37;;;3.90;99.90;;;;;;5094709;28;20490;-67
2022/12/07 07:16:06;;;;;;;17.30;7.80;;;3.90;99.90;;;;;;5094685;28;20462;-59
2022/12/07 07:18:36;;;;;;;16.53;7.80;;;3.90;99.90;;;;;;5095483;28;20474;-60
2022/12/07 07:21:07;;;;;;;15.90;6.97;;;4.00;99.90;;;;;;5095088;28;20470;-62
2022/12/07 07:23:35;;;;;;;9.47;5.27;;;4.00;99.90;;;;;;5093942;28;20528;-62
2022/12/07 07:26:02;;;;;;;14.07;7.77;;;4.00;99.90;;;;;;5095620;28;20499;-62
2022/12/07 07:28:32;;;;;;;18.53;7.10;;;4.00;99.90;;;;;;5095819;28;20472;-59
2022/12/07 07:31:01;;;;;;;14.43;7.80;;;4.10;99.90;;;;;;5077499;28;20483;-60
2022/12/07 07:33:31;;;;;;;11.97;6.83;;;4.10;99.90;;;;;;5075425;28;20451;-63
2022/12/07 07:35:58;;;;;;;10.97;5.30;;;4.10;99.90;;;;;;5075443;28;20500;-61
2022/12/07 07:38:27;;;;;;;12.20;6.17;;;4.10;99.90;;;;;;5075199;28;20465;-63
2022/12/07 07:40:56;;;;;;;15.20;7.10;;;4.10;99.90;;;;;;5075672;28;20438;-63
2022/12/07 07:43:23;;;;;;;19.13;5.80;;;4.10;99.90;;;;;;5090826;28;20458;-60
2022/12/07 07:45:50;;;;;;;8.50;5.27;;;4.10;99.90;;;;;;5103141;28;20452;-61
2022/12/07 07:48:17;;;;;;;8.13;4.90;;;4.10;99.90;;;;;;5116373;28;20445;-59
2022/12/07 07:50:44;;;;;;;8.30;3.97;;;4.00;99.90;;;;;;5115497;28;20445;-60
2022/12/07 07:53:11;;;;;;;16.93;6.13;;;4.00;99.90;;;;;;5116002;28;20473;-60
2022/12/07 07:55:38;;;;;;;12.17;6.17;;;4.00;99.90;;;;;;5115811;28;20466;-60
2022/12/07 07:58:06;;;;;;;6.20;4.40;;;4.00;99.90;;;;;;5115263;28;20459;-62
2022/12/07 08:00:33;;;;;;;11.47;4.63;;;4.00;99.90;;;;;;5116252;28;20417;-63
2022/12/07 08:03:05;;;;;;;13.53;5.63;;;4.00;99.90;;;;;;5116614;28;20405;-57
2022/12/07 08:05:32;;;;;;;7.23;3.70;;;4.10;99.90;;;;;;5117115;28;20418;-62
2022/12/07 08:07:59;;;;;;;5.43;3.67;;;4.10;99.90;;;;;;5117430;28;20444;-62
2022/12/07 08:10:26;;;;;;;7.50;4.67;;;4.20;99.90;;;;;;5116853;28;20440;-61
2022/12/07 08:13:13;;;;;;;4.63;3.20;;;4.20;99.90;;;;;;5116762;28;20539;-62
2022/12/07 08:15:45;;;;;;;4.30;3.33;;;4.20;99.90;;;;;;5116673;28;20459;-56
2022/12/07 08:18:13;;;;;;;6.17;3.50;;;4.10;99.90;;;;;;5116968;28;20453;-59
2022/12/07 08:20:40;;;;;;;8.30;4.40;;;4.20;99.90;;;;;;5116523;28;20453;-60
2022/12/07 08:23:08;;;;;;;9.10;5.33;;;4.10;99.90;;;;;;5116889;28;20441;-58
2022/12/07 08:25:36;;;;;;;4.53;3.50;;;4.20;99.90;;;;;;5116785;28;20445;-58
2022/12/07 08:28:03;;;;;;;4.90;2.20;;;4.20;99.90;;;;;;5115991;28;20455;-57
2022/12/07 08:30:31;;;;;;;6.73;2.60;;;4.20;99.90;;;;;;5116310;28;20456;-57
2022/12/07 08:32:59;;;;;;;5.40;3.20;;;4.30;99.90;;;;;;5116223;28;20464;-61
2022/12/07 08:35:26;;;;;;;4.60;3.33;;;4.20;99.90;;;;;;5118729;28;20445;-57
2022/12/07 08:37:53;;;;;;;7.30;2.97;;;4.30;99.90;;;;;;5120734;28;20448;-56
2022/12/07 08:40:20;;;;;;;7.50;2.63;;;4.20;99.90;;;;;;5120445;28;20429;-54
2022/12/07 08:42:50;;;;;;;5.30;3.20;;;4.20;99.90;;;;;;5120910;28;20456;-59
2022/12/07 08:45:18;;;;;;;3.23;2.93;;;4.20;99.90;;;;;;5120865;28;20444;-54
2022/12/07 08:47:51;;;;;;;2.83;1.77;;;4.30;99.90;;;;;;5121236;28;20461;-57
2022/12/07 08:50:20;;;;;;;2.80;1.57;;;4.20;99.90;;;;;;5121079;28;20425;-52
2022/12/07 08:52:52;;;;;;;2.00;1.53;;;4.20;99.90;;;;;;5121497;28;20489;-56
2022/12/07 08:55:20;;;;;;;2.80;1.93;;;4.20;99.90;;;;;;5120857;28;20456;-59
2022/12/07 08:57:47;;;;;;;3.77;1.60;;;4.30;99.90;;;;;;5120064;28;20429;-63
2022/12/07 09:00:15;;;;;;;1.63;1.43;;;4.30;99.90;;;;;;5120964;28;20464;-60
2022/12/07 09:02:43;;;;;;;2.10;1.63;;;4.30;99.90;;;;;;5120972;28;20436;-59
2022/12/07 09:05:10;;;;;;;1.47;1.27;;;4.40;99.90;;;;;;5120597;28;20462;-60
2022/12/07 09:07:39;;;;;;;1.37;1.20;;;4.40;99.90;;;;;;5120322;28;20950;-57
2022/12/07 09:10:07;;;;;;;1.10;0.90;;;4.30;99.90;;;;;;5120901;28;20488;-54
2022/12/07 09:12:36;;;;;;;1.30;1.00;;;4.30;99.90;;;;;;5120044;28;20497;-61
2022/12/07 09:15:03;;;;;;;3.10;1.90;;;4.30;99.90;;;;;;5119724;28;20443;-61
2022/12/07 09:17:33;;;;;;;3.10;1.23;;;4.30;99.90;;;;;;5120130;28;20430;-67
2022/12/07 09:20:04;;;;;;;1.77;1.50;;;4.30;99.90;;;;;;5120463;28;20445;-56
2022/12/07 09:22:31;;;;;;;0.93;0.83;;;4.30;99.90;;;;;;5120260;28;20457;-54
2022/12/07 09:25:00;;;;;;;1.30;1.13;;;4.20;99.90;;;;;;5120481;28;20437;-62
2022/12/07 09:27:27;;;;;;;1.70;1.10;;;4.20;99.90;;;;;;5120575;28;20449;-59
2022/12/07 09:29:56;;;;;;;1.33;0.93;;;4.20;99.90;;;;;;5119963;28;20463;-62
2022/12/07 09:32:28;;;;;;;1.63;1.30;;;4.10;99.90;;;;;;5119706;28;20496;-60
2022/12/07 09:34:57;;;;;;;1.40;0.93;;;4.20;99.90;;;;;;5119591;28;20481;-65
2022/12/07 09:37:24;;;;;;;1.90;1.30;;;4.20;99.90;;;;;;5119240;28;20437;-57
2022/12/07 09:39:50;;;;;;;1.90;1.77;;;4.30;99.90;;;;;;5119332;28;20483;-65
2022/12/07 09:42:36;;;;;;;2.30;1.33;;;4.30;99.90;;;;;;5119441;28;20430;-61
2022/12/07 09:45:07;;;;;;;1.90;1.17;;;4.30;99.90;;;;;;5110182;28;20477;-60
2022/12/07 09:47:34;;;;;;;5.23;2.20;;;4.30;99.90;;;;;;5118648;28;20513;-57
2022/12/07 09:50:05;;;;;;;1.30;1.00;;;4.20;99.90;;;;;;5119804;28;20498;-56
2022/12/07 09:52:33;;;;;;;1.93;1.20;;;4.20;99.90;;;;;;5119434;28;20453;-61
2022/12/07 09:54:59;;;;;;;1.93;1.80;;;4.70;99.90;;;;;;5118943;28;20441;-60
2022/12/07 09:57:34;;;;;;;1.60;1.30;;;3.90;99.90;;;;;;5118432;28;20462;-59
2022/12/07 10:00:07;;;;;;;2.30;1.70;;;4.30;99.90;;;;;;5118905;28;20441;-57
2022/12/07 10:02:38;;;;;;;2.13;1.30;;;4.10;99.90;;;;;;5118685;28;20417;-59
2022/12/07 10:05:07;;;;;;;1.57;1.13;;;4.00;99.90;;;;;;5118886;28;20410;-60
2022/12/07 10:07:35;;;;;;;2.30;1.43;;;4.10;99.90;;;;;;5118813;28;20437;-57
2022/12/07 10:10:04;;;;;;;2.03;1.80;;;4.00;99.90;;;;;;5118461;28;20495;-60
2022/12/07 10:12:31;;;;;;;2.33;1.67;;;4.10;99.90;;;;;;5118358;28;20483;-60
2022/12/07 10:15:06;;;;;;;2.50;1.50;;;4.10;99.90;;;;;;5118682;28;20457;-60
2022/12/07 10:17:40;;;;;;;2.50;1.63;;;4.20;99.90;;;;;;5118177;28;20425;-59
2022/12/07 10:20:19;;;;;;;3.80;2.70;;;3.90;99.90;;;;;;5117985;28;20457;-60
2022/12/07 10:23:05;;;;;;;2.23;1.57;;;4.20;99.90;;;;;;5118062;28;20421;-61
2022/12/07 10:25:36;;;;;;;1.83;1.73;;;4.20;99.90;;;;;;5117797;28;20437;-53
2022/12/07 10:28:19;;;;;;;2.43;2.07;;;4.20;99.90;;;;;;5118042;28;20434;-55
2022/12/07 10:30:58;;;;;;;4.83;1.90;;;4.20;99.90;;;;;;5118547;28;20434;-58
2022/12/07 10:33:30;;;;;;;5.30;1.53;;;4.30;99.90;;;;;;5115871;28;20485;-59
2022/12/07 10:35:58;;;;;;;1.83;1.33;;;4.20;99.90;;;;;;5118016;28;20448;-57
2022/12/07 10:38:27;;;;;;;3.90;2.00;;;4.20;99.90;;;;;;5118254;28;20457;-56
2022/12/07 10:41:06;;;;;;;2.20;1.50;;;4.10;99.90;;;;;;5205428;22;20543;-53
2022/12/07 10:43:33;;;;;;;1.13;1.03;;;4.10;99.90;;;;;;5055603;28;20467;-56
2022/12/07 10:46:37;;;;;;;2.57;1.57;;;4.20;99.90;;;;;;5055709;28;20437;-52
2022/12/07 10:49:17;;;;;;;2.07;1.47;;;4.10;99.90;;;;;;5055767;28;20466;-53
2022/12/07 10:51:52;;;;;;;3.20;1.30;;;4.10;99.90;;;;;;5048860;28;20474;-55
2022/12/07 10:54:27;;;;;;;3.60;1.97;;;4.10;99.90;;;;;;5055989;28;20470;-58
2022/12/07 10:57:13;;;;;;;3.93;1.90;;;4.10;99.90;;;;;;5063555;28;20450;-53
2022/12/07 10:59:56;;;;;;;2.47;1.40;;;4.10;99.90;;;;;;5062232;28;20464;-53
2022/12/07 11:02:44;;;;;;;2.00;1.40;;;4.10;99.90;;;;;;5072504;28;20475;-61
2022/12/07 11:05:20;;;;;;;2.17;1.97;;;4.10;99.90;;;;;;5074044;28;20436;-53
2022/12/07 11:08:00;;;;;;;1.70;1.47;;;4.10;99.90;;;;;;5075684;28;20469;-55
2022/12/07 11:10:35;;;;;;;3.13;2.03;;;4.30;99.90;;;;;;5069333;28;20432;-56
2022/12/07 11:13:25;;;;;;;3.07;1.70;;;4.30;99.90;;;;;;5075421;28;20467;-55
2022/12/07 11:16:08;;;;;;;3.00;1.97;;;4.40;99.90;;;;;;5074576;28;20446;-56
2022/12/07 11:18:46;;;;;;;1.67;1.50;;;4.50;99.90;;;;;;5069750;28;20478;-56
2022/12/07 11:21:21;;;;;;;3.57;1.33;;;4.50;99.90;;;;;;5074033;28;20439;-54
2022/12/07 11:23:53;;;;;;;4.00;2.33;;;4.70;99.90;;;;;;5071865;28;20443;-55
2022/12/07 11:26:35;;;;;;;1.97;1.77;;;4.70;99.90;;;;;;5055212;28;20482;-54
2022/12/07 11:29:23;;;;;;;1.80;1.30;;;4.60;99.90;;;;;;5055775;28;20447;-56
2022/12/07 11:31:59;;;;;;;2.03;1.60;;;4.60;99.90;;;;;;5062394;28;20440;-58
2022/12/07 11:34:35;;;;;;;1.83;1.53;;;4.50;99.90;;;;;;5055090;28;20464;-55
2022/12/07 11:37:09;;;;;;;2.10;1.57;;;4.50;99.90;;;;;;5054342;28;20467;-54
2022/12/07 11:39:40;;;;;;;3.30;2.00;;;4.50;99.90;;;;;;5046678;28;20496;-61
2022/12/07 11:42:12;;;;;;;1.83;1.40;;;4.50;99.90;;;;;;5054992;28;20483;-57
2022/12/07 11:44:49;;;;;;;3.90;2.20;;;4.50;99.90;;;;;;5050410;28;20464;-59
2022/12/07 11:47:21;;;;;;;4.37;2.37;;;4.60;99.90;;;;;;5049293;28;20464;-53
2022/12/07 11:49:55;;;;;;;1.80;1.53;;;4.60;99.90;;;;;;5054464;28;20432;-57
2022/12/07 11:52:28;;;;;;;2.03;1.47;;;4.50;99.90;;;;;;5054059;28;20447;-59
2022/12/07 11:54:55;;;;;;;2.77;2.40;;;4.60;99.90;;;;;;5054729;28;20432;-59
2022/12/07 11:57:33;;;;;;;2.30;1.97;;;4.60;99.90;;;;;;5054293;28;20539;-54
2022/12/07 12:00:04;;;;;;;2.40;1.80;;;4.50;99.90;;;;;;5053835;28;20467;-56
2022/12/07 12:02:39;;;;;;;1.80;1.43;;;4.50;99.90;;;;;;5054125;28;20458;-56
2022/12/07 12:05:16;;;;;;;3.90;1.97;;;4.60;99.90;;;;;;5064833;28;20455;-56
2022/12/07 12:07:45;;;;;;;2.60;2.40;;;4.50;99.90;;;;;;5074193;28;20476;-54
2022/12/07 12:10:20;;;;;;;4.47;1.67;;;4.60;99.90;;;;;;5074657;28;20683;-52
2022/12/07 12:13:15;;;;;;;2.53;2.20;;;4.60;99.90;;;;;;5070431;28;20568;-53
2022/12/07 12:15:56;;;;;;;1.50;1.10;;;4.70;99.90;;;;;;5055632;28;20475;-54
2022/12/07 12:18:35;;;;;;;4.97;1.30;;;4.80;99.90;;;;;;5053028;28;20425;-58
2022/12/07 12:21:09;;;;;;;2.10;1.90;;;4.70;99.90;;;;;;5049725;28;20435;-53
2022/12/07 12:23:42;;;;;;;1.40;1.27;;;4.80;99.90;;;;;;5054340;28;20448;-56
2022/12/07 12:26:16;;;;;;;2.70;1.60;;;4.80;99.90;;;;;;5054873;28;20439;-61
2022/12/07 12:28:55;;;;;;;2.40;1.77;;;4.80;99.90;;;;;;5054625;28;20471;-58
2022/12/07 12:31:39;;;;;;;2.80;1.77;;;4.90;99.90;;;;;;5060749;28;20427;-56
2022/12/07 12:34:38;;;;;;;2.20;1.50;;;4.90;99.90;;;;;;5074111;28;20506;-58
2022/12/07 12:37:29;;;;;;;1.20;1.10;;;4.90;99.90;;;;;;5073096;28;20458;-55
2022/12/07 12:40:31;;;;;;;3.17;2.27;;;4.90;99.90;;;;;;5067740;28;20526;-56
2022/12/07 12:42:58;;;;;;;2.73;2.10;;;4.90;99.90;;;;;;5041607;28;20448;-57
2022/12/07 12:45:26;;;;;;;4.10;1.47;;;4.90;99.90;;;;;;5053775;28;20452;-61
2022/12/07 12:48:01;;;;;;;2.80;1.63;;;5.00;99.90;;;;;;5055009;28;20428;-64
2022/12/07 12:50:31;;;;;;;3.37;1.43;;;4.90;99.90;;;;;;5054865;28;20436;-60
2022/12/07 12:53:22;;;;;;;2.37;1.30;;;4.90;99.90;;;;;;5053918;28;20584;-55
2022/12/07 12:56:23;;;;;;;1.33;1.13;;;4.90;99.90;;;;;;5054228;28;20425;-56
2022/12/07 12:59:25;;;;;;;1.40;1.30;;;4.90;99.90;;;;;;5053695;28;20408;-54
2022/12/07 13:01:59;;;;;;;3.63;1.13;;;4.80;99.90;;;;;;5054100;28;20439;-58
2022/12/07 13:04:37;;;;;;;2.20;1.70;;;4.80;99.90;;;;;;5053775;28;20442;-53
2022/12/07 13:07:05;;;;;;;4.53;1.80;;;4.90;99.90;;;;;;5053576;28;20439;-56
2022/12/07 13:09:36;;;;;;;2.13;1.37;;;4.90;99.90;;;;;;5053832;28;20482;-54
2022/12/07 13:12:06;;;;;;;2.37;1.60;;;4.90;99.90;;;;;;5053783;28;20440;-50
2022/12/07 13:15:02;;;;;;;5.23;1.77;;;4.90;99.90;;;;;;5058483;28;20515;-59
2022/12/07 13:18:00;;;;;;;3.03;1.47;;;5.00;99.90;;;;;;5073315;28;20442;-58
2022/12/07 13:20:50;;;;;;;2.33;1.80;;;5.00;99.90;;;;;;5062042;28;20486;-57
2022/12/07 13:23:24;;;;;;;6.47;1.90;;;5.00;99.90;;;;;;5057577;28;20432;-54
2022/12/07 13:26:02;;;;;;;4.70;2.17;;;5.10;99.90;;;;;;5059383;28;20442;-51
2022/12/07 13:28:41;;;;;;;11.00;1.57;;;5.10;99.90;;;;;;5071696;28;20439;-52
2022/12/07 13:31:40;;;;;;;2.10;1.00;;;5.10;99.90;;;;;;5076788;28;20428;-56
2022/12/07 13:34:28;;;;;;;7.70;2.40;;;5.10;99.90;;;;;;5021444;28;20599;-60